Latest Weather Observations for Gosford

IDN60801

Issued at 9:32 pm EDT Tuesday 17 January 2017 (issued every 30 minutes, with the page automatically refreshed every 10 minutes)

About weather observations | Map of weather stations | Latest weather observations for NSW | Other Formats
Station Details ID: 061425 Name: GOSFORD AWS Lat: -33.44 Lon: 151.36 Height: 7.0 m
Data from the previous 72 hours. | See also: Recent months at Gosford
Date/Time
EDT
Temp
°C
App
Temp
°C
Dew
Point
°C
Rel
Hum
%
Delta-T
°C
Wind Press
QNH
hPa
Press
MSL
hPa
Rain since
9am
mm
Dir  Spd
km/h
Gust
km/h
Spd
kts
Gust
kts
17/09:30pm 32.7 35.0 20.6 49 8.1 NNE 9 17 5 9 - - 0.0
17/09:00pm 32.5 34.9 20.1 48 8.2 NNE 7 17 4 9 - - 0.0
17/08:30pm 32.4 35.0 20.0 48 8.2 NNE 6 13 3 7 - - 0.0
17/08:00pm 31.3 34.0 20.3 52 7.3 E 6 7 3 4 - - 0.0
17/07:30pm 32.6 35.5 19.8 46 8.5 NE 4 9 2 5 - - 0.0
17/07:00pm 32.9 34.2 20.1 47 8.5 NNE 13 22 7 12 - - 0.0
17/06:30pm 32.3 33.6 20.2 48 8.0 ENE 13 20 7 11 - - 0.0
17/06:00pm 32.7 33.1 19.9 46 8.5 E 17 24 9 13 - - 0.0
17/05:30pm 34.2 35.4 19.8 42 9.6 E 13 20 7 11 - - 0.0
17/05:00pm 34.7 35.1 19.9 42 9.8 ENE 17 24 9 13 - - 0.0
17/04:30pm 33.8 33.7 19.5 43 9.4 ENE 19 30 10 16 - - 0.0
17/04:00pm 36.0 37.2 20.7 41 10.3 E 15 24 8 13 - - 0.0
17/03:30pm 34.1 35.7 21.5 47 8.5 ENE 15 24 8 13 - - 0.0
17/03:00pm 34.5 37.1 21.9 48 8.6 ENE 11 17 6 9 - - 0.0
17/02:30pm 33.7 35.5 21.2 48 8.4 E 13 20 7 11 - - 0.0
17/02:00pm 32.4 33.2 21.3 52 7.5 E 19 26 10 14 - - 0.0
17/01:30pm 33.7 34.8 21.2 48 8.4 E 17 24 9 13 - - 0.0
17/01:00pm 33.3 34.0 20.5 47 8.6 E 17 24 9 13 - - 0.0
17/12:30pm 34.3 35.7 21.0 45 9.0 E 15 20 8 11 - - 0.0
17/12:00pm 33.0 34.8 21.2 50 8.0 E 13 19 7 10 - - 0.0
17/11:30am 32.6 34.2 20.8 49 7.9 E 13 17 7 9 - - 0.0
17/11:00am 32.0 34.2 20.3 50 7.8 E 9 13 5 7 - - 0.0
17/10:30am 31.4 34.1 19.4 49 7.9 ENE 4 9 2 5 - - 0.0
17/10:00am 29.9 32.6 20.2 56 6.4 ENE 6 13 3 7 - - 0.0
17/09:30am 27.8 30.8 20.1 63 5.0 ESE 4 9 2 5 - - 0.0
17/09:00am 25.3 28.0 19.4 70 3.8 S 4 7 2 4 - - 0.0
17/08:30am 24.2 27.5 19.1 73 3.3 CALM 0 2 0 1 - - 0.0
17/08:00am 22.8 26.1 19.2 80 2.3 CALM 0 0 0 0 - - 0.0
17/07:30am 21.2 24.1 19.1 88 1.3 SE 2 4 1 2 - - 0.0
17/07:00am 19.8 23.1 19.0 95 0.5 CALM 0 2 0 1 - - 0.0
17/06:30am 19.1 20.9 18.3 95 0.5 SE 6 9 3 5 - - 0.0
17/06:00am 18.6 20.9 17.6 94 0.6 N 2 4 1 2 - - 0.0
17/05:30am 18.8 20.8 17.8 94 0.6 NNE 4 6 2 3 - - 0.0
17/05:00am 18.9 21.7 17.9 94 0.6 CALM 0 0 0 0 - - 0.0
17/04:30am 19.0 21.8 18.0 94 0.6 CALM 0 0 0 0 - - 0.0
17/04:00am 19.0 21.7 17.8 93 0.7 CALM 0 2 0 1 - - 0.0
17/03:30am 19.6 22.7 18.6 94 0.6 CALM 0 0 0 0 - - 0.0
17/03:00am 19.5 22.4 18.3 93 0.7 CALM 0 2 0 1 - - 0.0
17/02:30am 19.7 22.3 18.5 93 0.7 NNW 2 4 1 2 - - 0.0
17/02:00am 19.8 22.7 18.3 91 0.9 CALM 0 0 0 0 - - 0.0
17/01:30am 20.2 23.3 18.7 91 0.9 CALM 0 0 0 0 - - 0.0
17/01:00am 20.6 23.6 18.5 88 1.3 CALM 0 0 0 0 - - 0.0
17/12:30am 21.2 24.4 18.8 86 1.5 CALM 0 0 0 0 - - 0.0
17/12:00am 21.9 25.1 18.9 83 1.9 CALM 0 4 0 2 - - 0.0
 
Date/Time
EDT
Temp
°C
App
Temp
°C
Dew
Point
°C
Rel
Hum
%
Delta-T
°C
Wind Press
QNH
hPa
Press
MSL
hPa
Rain since
9am
mm
Dir  Spd
km/h
Gust
km/h
Spd
kts
Gust
kts
16/11:30pm 22.3 24.5 19.3 83 1.9 NE 6 11 3 6 - - 0.0
16/11:00pm 22.6 24.3 19.4 82 2.0 NE 9 15 5 8 - - 0.0
16/10:30pm 22.6 24.3 19.4 82 2.0 NE 9 19 5 10 - - 0.0
16/10:00pm 22.8 24.1 19.4 81 2.2 NE 11 24 6 13 - - 0.0
16/09:30pm 23.0 23.5 19.2 79 2.4 NE 15 24 8 13 - - 0.0
16/09:00pm 23.1 23.4 18.8 77 2.7 NE 15 24 8 13 - - 0.0
16/08:30pm 23.2 23.3 18.3 74 3.1 NE 15 26 8 14 - - 0.0
16/08:00pm 23.5 23.5 18.2 72 3.3 NE 15 28 8 15 - - 0.0
16/07:30pm 24.1 23.2 18.1 69 3.8 NE 20 30 11 16 - - 0.0
16/07:00pm 24.6 24.2 18.1 67 4.1 NE 17 35 9 19 - - 0.0
16/06:30pm 25.0 23.3 18.2 66 4.3 NE 24 37 13 20 - - 0.0
16/06:00pm 25.9 25.3 18.8 65 4.5 ENE 20 30 11 16 - - 0.0
16/05:30pm 25.7 24.1 18.4 64 4.6 ENE 24 33 13 18 - - 0.0
16/05:00pm 26.0 24.4 18.4 63 4.8 ENE 24 39 13 21 - - 0.0
16/04:30pm 26.5 24.5 18.4 61 5.2 ENE 26 41 14 22 - - 0.0
16/04:00pm 26.7 25.5 18.3 60 5.3 ENE 22 39 12 21 - - 0.0
16/03:30pm 26.9 25.8 17.7 57 5.8 NE 20 39 11 21 - - 0.0
16/03:00pm 26.9 24.3 17.9 57 5.7 ENE 28 43 15 23 - - 0.0
16/02:30pm 27.2 25.4 17.9 56 5.9 ENE 24 35 13 19 - - 0.0
16/02:00pm 27.0 25.5 17.8 57 5.8 ENE 22 37 12 20 - - 0.0
16/01:30pm 27.6 26.2 18.0 55 6.1 ENE 22 32 12 17 - - 0.0
16/01:00pm 27.4 26.6 18.1 57 5.9 ENE 19 26 10 14 - - 0.0
16/12:30pm 26.8 25.3 17.8 57 5.7 ENE 22 35 12 19 - - 0.0
16/12:00pm 27.0 26.7 18.3 59 5.5 ENE 17 26 9 14 - - 0.0
16/11:30am 26.9 27.5 18.5 60 5.4 NE 13 20 7 11 - - 0.0
16/11:00am 26.3 26.7 18.2 61 5.1 NE 13 28 7 15 - - 0.0
16/10:30am 25.5 26.0 18.4 65 4.5 NE 13 22 7 12 - - 0.0
16/10:00am 24.5 25.7 18.2 68 4.0 NE 9 17 5 9 - - 0.0
16/09:30am 24.3 24.5 18.5 70 3.7 NNE 15 24 8 13 - - 0.0
16/09:00am 24.2 25.9 18.4 70 3.7 NNE 7 13 4 7 - - 0.0
16/08:30am 23.6 24.2 17.6 69 3.7 NE 11 24 6 13 - - 0.0
16/08:00am 23.5 25.9 18.8 75 3.0 NNE 4 9 2 5 - - 0.0
16/07:30am 21.7 24.8 18.7 83 1.9 CALM 0 0 0 0 - - 0.0
16/07:00am 20.4 23.3 18.2 87 1.4 CALM 0 0 0 0 - - 0.0
16/06:30am 19.7 22.4 17.7 88 1.2 CALM 0 0 0 0 - - 0.0
16/06:00am 19.6 22.2 17.4 87 1.3 CALM 0 0 0 0 - - 0.0
16/05:30am 20.3 22.6 17.7 85 1.6 N 2 4 1 2 - - 0.0
16/05:00am 20.4 23.1 17.8 85 1.6 CALM 0 0 0 0 - - 0.0
16/04:30am 20.1 22.9 17.9 87 1.4 CALM 0 0 0 0 - - 0.0
16/04:00am 19.8 22.4 17.6 87 1.3 CALM 0 0 0 0 - - 0.0
16/03:30am 19.9 22.5 17.5 86 1.5 CALM 0 0 0 0 - - 0.0
16/03:00am 19.9 22.5 17.5 86 1.5 CALM 0 0 0 0 - - 0.0
16/02:30am 20.0 22.3 17.6 86 1.5 NE 2 4 1 2 - - 0.0
16/02:00am 20.2 22.4 17.4 84 1.7 NE 2 4 1 2 - - 0.0
16/01:30am 20.6 22.4 17.4 82 2.0 ENE 4 4 2 2 - - 0.0
16/01:00am 21.4 23.2 17.4 78 2.5 NNE 4 7 2 4 - - 0.0
16/12:30am 21.7 23.5 17.5 77 2.6 NNE 4 11 2 6 - - 0.0
16/12:00am 22.0 23.5 17.6 76 2.7 NNE 6 13 3 7 - - 0.0
 
Date/Time
EDT
Temp
°C
App
Temp
°C
Dew
Point
°C
Rel
Hum
%
Delta-T
°C
Wind Press
QNH
hPa
Press
MSL
hPa
Rain since
9am
mm
Dir  Spd
km/h
Gust
km/h
Spd
kts
Gust
kts
15/11:30pm 22.3 23.9 17.9 76 2.7 NNE 6 13 3 7 - - 0.0
15/11:00pm 22.4 23.4 17.8 75 2.9 NE 9 17 5 9 - - 0.0
15/10:30pm 22.5 24.0 18.1 76 2.7 NE 7 13 4 7 - - 0.0
15/10:00pm 22.4 23.9 18.0 76 2.7 ENE 7 11 4 6 - - 0.0
15/09:30pm 22.2 23.8 17.8 76 2.7 ENE 6 9 3 5 - - 0.0
15/09:00pm 22.0 23.5 17.6 76 2.7 NE 6 13 3 7 - - 0.0
15/08:30pm 22.3 23.8 17.7 75 2.9 ENE 6 11 3 6 - - 0.0
15/08:00pm 22.9 23.8 17.6 72 3.3 NE 9 19 5 10 - - 0.0
15/07:30pm 23.3 23.4 17.5 70 3.6 ENE 13 19 7 10 - - 0.0
15/07:00pm 23.8 23.8 17.3 67 4.0 ENE 13 24 7 13 - - 0.0
15/06:30pm 24.2 24.4 17.7 67 4.1 ENE 13 20 7 11 - - 0.0
15/06:00pm 24.6 24.9 17.8 66 4.3 ENE 13 20 7 11 - - 0.0
15/05:30pm 24.2 23.4 17.2 65 4.3 E 17 26 9 14 - - 0.0
15/05:00pm 25.8 25.6 17.7 61 5.1 E 15 22 8 12 - - 0.0
15/04:30pm 24.3 24.4 17.5 66 4.2 ENE 13 24 7 13 - - 0.0
15/04:00pm 26.3 26.0 18.2 61 5.1 E 17 26 9 14 - - 0.0
15/03:30pm 25.4 25.2 17.6 62 4.9 ENE 15 26 8 14 - - 0.0
15/03:00pm 25.3 25.1 17.7 62 4.8 ENE 15 22 8 12 - - 0.0
15/02:30pm 24.9 24.5 18.1 66 4.3 E 17 26 9 14 - - 0.0
15/02:00pm 25.8 25.4 18.0 62 4.9 E 17 24 9 13 - - 0.0
15/01:30pm 26.2 25.1 16.4 54 6.0 ENE 17 24 9 13 - - 0.0
15/01:00pm 25.9 26.0 17.5 59 5.3 E 13 19 7 10 - - 0.0
15/12:30pm 25.3 25.4 17.5 62 4.9 E 13 20 7 11 - - 0.0
15/12:00pm 24.9 25.2 17.1 62 4.8 E 11 17 6 9 - - 0.0
15/11:30am 24.4 24.9 17.4 65 4.4 E 11 20 6 11 - - 0.0
15/11:00am 24.0 24.8 17.3 66 4.2 E 9 13 5 7 - - 0.0
15/10:30am 24.1 24.7 17.8 68 3.9 E 11 17 6 9 - - 0.0
15/10:00am 23.9 24.6 17.9 69 3.8 E 11 17 6 9 - - 0.0
15/09:30am 23.8 24.6 18.2 71 3.5 E 11 17 6 9 - - 0.0
15/09:00am 23.1 24.2 18.0 73 3.2 E 9 13 5 7 - - 0.0
15/08:30am 23.0 25.9 19.0 78 2.5 ESE 2 7 1 4 - - 0.0
15/08:00am 22.7 24.8 18.9 79 2.4 ENE 6 13 3 7 - - 0.0
15/07:30am 22.6 25.8 18.8 79 2.4 CALM 0 4 0 2 - - 0.0
15/07:00am 22.2 24.6 18.8 81 2.1 NE 4 6 2 3 - - 0.0
15/06:30am 22.4 23.7 18.4 78 2.5 ESE 9 15 5 8 - - 0.0
15/06:00am 22.5 24.2 18.1 76 2.7 ENE 6 9 3 5 - - 0.0
15/05:30am 22.7 24.2 18.0 75 2.9 E 7 11 4 6 - - 0.0
15/05:00am 22.7 24.5 18.3 76 2.8 E 6 9 3 5 - - 0.0
15/04:30am 22.8 24.0 18.3 76 2.8 ESE 9 13 5 7 - - 0.0
15/04:00am 22.8 23.7 18.3 76 2.8 ESE 11 19 6 10 - - 0.0
15/03:30am 23.0 24.2 18.3 75 2.9 ESE 9 15 5 8 - - 0.0
15/03:00am 23.1 24.4 18.4 75 3.0 ESE 9 19 5 10 - - 0.0
15/02:30am 23.2 24.8 18.3 74 3.1 ESE 7 15 4 8 - - 0.0
15/02:00am 23.3 25.4 19.0 77 2.7 ESE 6 17 3 9 - - 0.0
15/01:30am 23.4 25.7 19.8 80 2.3 SE 7 13 4 7 - - 0.0
15/01:00am 23.2 24.9 20.2 83 1.9 E 11 20 6 11 - - 0.0
15/12:30am 23.7 26.1 20.0 80 2.4 ESE 7 11 4 6 - - 0.0
15/12:00am 23.7 26.4 20.2 81 2.3 SE 6 9 3 5 - - 0.0
 
Date/Time
EDT
Temp
°C
App
Temp
°C
Dew
Point
°C
Rel
Hum
%
Delta-T
°C
Wind Press
QNH
hPa
Press
MSL
hPa
Rain since
9am
mm
Dir  Spd
km/h
Gust
km/h
Spd
kts
Gust
kts
14/11:30pm 23.8 26.3 20.3 81 2.3 SE 7 17 4 9 - - 0.0
14/11:00pm 23.9 26.2 20.6 82 2.2 ESE 9 15 5 8 - - 0.0
14/10:30pm 24.1 27.0 20.6 81 2.3 SE 6 11 3 6 - - 0.0
14/10:00pm 24.3 27.2 21.0 82 2.2 SE 7 15 4 8 - - 0.0

Other Formats:

Comma delimited format used in spreadsheet applications
http://www.bom.gov.au/fwo/IDN60801/IDN60801.94782.axf

JavaScript Object Notation format (JSON) in row-major order
http://www.bom.gov.au/fwo/IDN60801/IDN60801.94782.json